createdAt,value
2023-02-07T00:02:25.445Z,-0.18
2023-02-07T00:04:53.156Z,0.01
2023-02-07T00:07:22.221Z,0.07
2023-02-07T00:09:50.261Z,0.08
2023-02-07T00:12:17.956Z,0.04
2023-02-07T00:14:45.683Z,0.07
2023-02-07T00:17:13.274Z,0.06
2023-02-07T00:19:40.893Z,0.12
2023-02-07T00:22:08.537Z,-0.05
2023-02-07T00:24:37.529Z,-0.31
2023-02-07T00:27:05.234Z,-0.05
2023-02-07T00:29:33.202Z,-0.17
2023-02-07T00:32:00.921Z,-0.12
2023-02-07T00:34:28.615Z,-0.19
2023-02-07T00:36:56.212Z,-0.05
2023-02-07T00:39:23.843Z,-0.13
2023-02-07T00:41:53.792Z,-0.25
2023-02-07T00:44:21.390Z,-0.25
2023-02-07T00:46:49.154Z,-0.30
2023-02-07T00:49:16.806Z,-0.32
2023-02-07T00:51:44.406Z,-0.44
2023-02-07T00:54:12.017Z,-0.31
2023-02-07T00:56:39.575Z,-0.50
2023-02-07T00:59:08.863Z,-0.42
2023-02-07T01:01:36.812Z,-0.48
2023-02-07T01:04:04.547Z,-0.59
2023-02-07T01:06:33.763Z,-0.49
2023-02-07T01:09:02.833Z,-0.61
2023-02-07T01:11:30.830Z,-0.50
2023-02-07T01:13:59.795Z,-0.58
2023-02-07T01:16:30.474Z,-0.64
2023-02-07T01:18:58.918Z,-0.62
2023-02-07T01:21:28.160Z,-0.65
2023-02-07T01:23:56.952Z,-0.63
2023-02-07T01:26:25.173Z,-0.62
2023-02-07T01:28:52.848Z,-0.61
2023-02-07T01:31:22.145Z,-0.60
2023-02-07T01:33:54.489Z,-0.88
2023-02-07T01:36:22.272Z,-0.70
2023-02-07T01:38:50.006Z,-0.64
2023-02-07T01:41:17.582Z,-0.74
2023-02-07T01:44:00.424Z,-0.67
2023-02-07T01:46:29.280Z,-0.78
2023-02-07T01:49:00.354Z,-0.79
2023-02-07T01:51:29.087Z,-0.57
2023-02-07T01:53:59.071Z,-0.60
2023-02-07T01:56:32.040Z,-0.55
2023-02-07T01:59:00.258Z,-0.49
2023-02-07T02:01:27.994Z,-0.49
2023-02-07T02:03:58.357Z,-0.51
2023-02-07T02:06:28.827Z,-0.41
2023-02-07T02:08:58.557Z,-0.49
2023-02-07T02:11:51.939Z,-0.42
2023-02-07T02:14:28.308Z,-0.29
2023-02-07T02:17:01.925Z,-0.31
2023-02-07T02:20:16.035Z,-0.19
2023-02-07T02:22:56.896Z,-0.27
2023-02-07T02:25:50.353Z,-0.37
2023-02-07T02:30:47.515Z,-0.45
2023-02-07T02:35:47.704Z,-0.60
2023-02-07T02:38:18.197Z,-0.45
2023-02-07T02:40:52.047Z,-0.61
2023-02-07T02:43:26.029Z,-0.66
2023-02-07T02:45:57.716Z,-0.69
2023-02-07T02:48:26.180Z,-0.79
2023-02-07T02:50:53.448Z,-0.82
2023-02-07T02:56:12.872Z,-0.75
2023-02-07T02:58:51.068Z,-0.78
2023-02-07T03:01:20.594Z,-0.88
2023-02-07T03:06:23.013Z,-0.93
2023-02-07T03:08:55.712Z,-0.98
2023-02-07T03:11:25.372Z,-0.98
2023-02-07T03:14:01.268Z,-0.95
2023-02-07T03:16:33.731Z,-1.22
2023-02-07T03:19:07.178Z,-1.07
2023-02-07T03:21:34.555Z,-1.04
2023-02-07T03:26:31.498Z,-1.12
2023-02-07T03:34:17.750Z,-1.17
2023-02-07T03:36:50.633Z,-1.20
2023-02-07T03:39:18.537Z,-1.35
2023-02-07T03:41:51.844Z,-1.22
2023-02-07T03:44:20.519Z,-1.15
2023-02-07T03:46:50.584Z,-1.19
2023-02-07T03:49:19.600Z,-1.26
2023-02-07T03:51:48.017Z,-1.32
2023-02-07T03:54:15.637Z,-1.35
2023-02-07T03:56:43.224Z,-1.45
2023-02-07T03:59:10.835Z,-1.33
2023-02-07T04:01:41.900Z,-1.47
2023-02-07T04:04:12.669Z,-1.56
2023-02-07T04:06:41.700Z,-1.50
2023-02-07T04:09:11.624Z,-1.46
2023-02-07T04:11:39.476Z,-1.54
2023-02-07T04:14:07.240Z,-1.52
2023-02-07T04:16:34.923Z,-1.60
2023-02-07T04:19:02.608Z,-1.58
2023-02-07T04:21:30.182Z,-1.61
2023-02-07T04:23:59.092Z,-1.66
2023-02-07T04:26:26.677Z,-1.55
2023-02-07T04:28:54.481Z,-1.69
2023-02-07T04:31:22.295Z,-1.74
2023-02-07T04:33:49.988Z,-1.77
2023-02-07T04:36:17.690Z,-1.93
2023-02-07T04:38:45.445Z,-1.90
2023-02-07T04:41:14.487Z,-1.93
2023-02-07T04:43:42.118Z,-1.93
2023-02-07T04:46:09.992Z,-1.92
2023-02-07T04:48:38.442Z,-1.97
2023-02-07T04:51:06.589Z,-1.98
2023-02-07T04:53:34.442Z,-2.05
2023-02-07T04:56:02.068Z,-2.04
2023-02-07T04:58:31.144Z,-1.96
2023-02-07T05:00:58.794Z,-2.10
2023-02-07T05:03:26.372Z,-2.14
2023-02-07T05:05:54.988Z,-2.01
2023-02-07T05:08:24.579Z,-2.14
2023-02-07T05:10:54.717Z,-2.12
2023-02-07T05:13:22.752Z,-2.10
2023-02-07T05:15:52.207Z,-2.16
2023-02-07T05:18:20.772Z,-2.25
2023-02-07T05:20:49.792Z,-2.21
2023-02-07T05:23:18.943Z,-2.26
2023-02-07T05:25:48.708Z,-2.25
2023-02-07T05:28:16.765Z,-2.34
2023-02-07T05:30:44.672Z,-2.26
2023-02-07T05:33:12.676Z,-2.24
2023-02-07T05:35:41.993Z,-2.31
2023-02-07T05:38:11.081Z,-2.34
2023-02-07T05:40:39.962Z,-2.43
2023-02-07T05:43:07.739Z,-2.33
2023-02-07T05:45:36.126Z,-2.40
2023-02-07T05:48:04.171Z,-2.40
2023-02-07T05:50:33.495Z,-2.41
2023-02-07T05:53:01.273Z,-2.34
2023-02-07T05:55:28.828Z,-2.28
2023-02-07T05:57:57.231Z,-2.42
2023-02-07T06:00:25.162Z,-2.40
2023-02-07T06:02:52.778Z,-2.49
2023-02-07T06:05:21.483Z,-2.56
2023-02-07T06:07:51.510Z,-2.56
2023-02-07T06:10:19.858Z,-2.58
2023-02-07T06:12:47.545Z,-2.66
2023-02-07T06:15:15.293Z,-2.66
2023-02-07T06:17:42.834Z,-2.72
2023-02-07T06:20:11.739Z,-2.75
2023-02-07T06:22:39.365Z,-2.67
2023-02-07T06:25:11.744Z,-2.82
2023-02-07T06:27:40.111Z,-2.80
2023-02-07T06:30:08.801Z,-2.71
2023-02-07T06:32:36.411Z,-2.93
2023-02-07T06:35:04.446Z,-2.80
2023-02-07T06:37:32.017Z,-2.91
2023-02-07T06:39:59.681Z,-2.81
2023-02-07T06:42:28.736Z,-2.83
2023-02-07T06:44:56.318Z,-2.76
2023-02-07T06:47:24.007Z,-2.70
2023-02-07T06:49:51.882Z,-2.79
2023-02-07T06:52:19.722Z,-2.89
2023-02-07T06:54:47.379Z,-2.86
2023-02-07T06:57:15.077Z,-2.91
2023-02-07T06:59:44.016Z,-2.83
2023-02-07T07:02:12.235Z,-2.95
2023-02-07T07:04:40.232Z,-2.95
2023-02-07T07:07:08.220Z,-2.98
2023-02-07T07:09:35.860Z,-2.74
2023-02-07T07:12:04.604Z,-2.77
2023-02-07T07:14:32.571Z,-2.72
2023-02-07T07:17:01.455Z,-2.60
2023-02-07T07:19:29.088Z,-2.74
2023-02-07T07:21:56.701Z,-2.64
2023-02-07T07:24:24.412Z,-2.62
2023-02-07T07:26:52.565Z,-2.66
2023-02-07T07:29:20.752Z,-2.63
2023-02-07T07:31:48.439Z,-2.62
2023-02-07T07:34:17.475Z,-2.53
2023-02-07T07:36:45.097Z,-2.42
2023-02-07T07:39:13.250Z,-2.24
2023-02-07T07:41:40.832Z,-2.37
2023-02-07T07:44:08.515Z,-2.34
2023-02-07T07:46:36.367Z,-2.25
2023-02-07T07:49:03.964Z,-2.28
2023-02-07T07:51:32.988Z,-2.21
2023-02-07T07:54:00.605Z,-2.22
2023-02-07T07:56:29.416Z,-2.11
2023-02-07T07:58:57.263Z,-2.02
2023-02-07T08:01:25.212Z,-2.03
2023-02-07T08:03:52.902Z,-1.87
2023-02-07T08:06:20.810Z,-2.03
2023-02-07T08:08:49.825Z,-2.00
2023-02-07T08:11:17.448Z,-2.01
2023-02-07T08:13:44.991Z,-1.84
2023-02-07T08:18:50.612Z,-1.96
2023-02-07T08:21:18.623Z,-1.73
2023-02-07T08:23:46.312Z,-1.68
2023-02-07T08:26:15.272Z,-1.51
2023-02-07T08:28:42.955Z,-1.47
2023-02-07T08:31:13.113Z,-1.51
2023-02-07T08:33:40.799Z,-1.36
2023-02-07T08:36:11.071Z,-1.28
2023-02-07T08:38:38.699Z,-1.17
2023-02-07T08:41:06.550Z,-1.25
2023-02-07T08:43:35.568Z,-1.31
2023-02-07T08:46:03.472Z,-1.22
2023-02-07T08:48:31.283Z,-1.25
2023-02-07T08:50:59.024Z,-1.12
2023-02-07T08:53:26.596Z,-0.93
2023-02-07T08:55:54.232Z,-0.96
2023-02-07T08:58:21.786Z,-0.89
2023-02-07T09:00:50.769Z,-0.86
2023-02-07T09:03:18.472Z,-0.99
2023-02-07T09:05:46.112Z,-0.79
2023-02-07T09:08:13.677Z,-0.62
2023-02-07T09:10:41.606Z,-0.59
2023-02-07T09:13:09.531Z,-0.58
2023-02-07T09:15:37.233Z,-0.49
2023-02-07T09:18:06.597Z,-0.51
2023-02-07T09:20:34.228Z,-0.74
2023-02-07T09:23:20.208Z,-0.48
2023-02-07T09:25:49.455Z,-0.18
2023-02-07T09:28:17.627Z,-0.20
2023-02-07T09:30:46.545Z,-0.14
2023-02-07T09:33:16.397Z,0.01
2023-02-07T09:35:46.242Z,-0.04
2023-02-07T09:38:15.236Z,0.09
2023-02-07T09:40:44.068Z,0.01
2023-02-07T09:43:18.523Z,-0.11
2023-02-07T09:45:47.529Z,0.04
2023-02-07T09:48:21.936Z,0.15
2023-02-07T09:50:52.960Z,0.01
2023-02-07T09:53:24.670Z,-0.13
2023-02-07T09:55:55.089Z,-0.19
2023-02-07T09:58:31.581Z,-0.01
2023-02-07T10:01:02.443Z,0.02
2023-02-07T10:03:33.012Z,-0.17
2023-02-07T10:06:12.718Z,-0.02
2023-02-07T10:08:45.087Z,-0.12
2023-02-07T10:11:20.097Z,0.02
2023-02-07T10:14:07.207Z,-0.29
2023-02-07T10:16:47.810Z,-0.02
2023-02-07T10:19:26.030Z,0.10
2023-02-07T10:21:59.090Z,0.12
2023-02-07T10:24:53.867Z,-0.03
2023-02-07T10:27:27.406Z,0.20
2023-02-07T10:29:57.728Z,0.57
2023-02-07T10:32:27.285Z,0.49
2023-02-07T10:34:58.160Z,0.74
2023-02-07T10:37:27.292Z,0.92
2023-02-07T10:40:02.195Z,0.96
2023-02-07T10:42:31.691Z,1.25
2023-02-07T10:44:59.400Z,1.08
2023-02-07T10:47:27.002Z,1.00
2023-02-07T10:49:56.814Z,1.24
2023-02-07T10:52:29.075Z,1.32
2023-02-07T10:54:58.294Z,0.97
2023-02-07T10:57:27.693Z,0.93
2023-02-07T11:00:04.496Z,1.45
2023-02-07T11:02:48.854Z,1.46
2023-02-07T11:05:37.239Z,1.34
2023-02-07T11:08:12.124Z,1.12
2023-02-07T11:10:41.228Z,1.24
2023-02-07T11:13:14.358Z,1.29
2023-02-07T11:15:49.529Z,1.38
2023-02-07T11:18:29.506Z,1.25
2023-02-07T11:20:58.706Z,1.54
2023-02-07T11:23:26.596Z,1.28
2023-02-07T11:25:56.060Z,1.64
2023-02-07T11:28:26.512Z,1.66
2023-02-07T11:30:58.052Z,1.87
2023-02-07T11:33:27.628Z,2.06
2023-02-07T11:36:12.575Z,2.10
2023-02-07T11:38:41.676Z,1.84
2023-02-07T11:41:18.461Z,1.91
2023-02-07T11:43:57.459Z,2.13
2023-02-07T11:46:32.678Z,2.28
2023-02-07T11:49:00.804Z,1.85
2023-02-07T11:51:32.425Z,2.34
2023-02-07T11:54:02.038Z,2.49
2023-02-07T11:56:32.743Z,2.68
2023-02-07T11:59:00.735Z,2.03
2023-02-07T12:01:30.043Z,2.08
2023-02-07T12:04:00.963Z,2.04
2023-02-07T12:06:36.330Z,2.20
2023-02-07T12:09:06.464Z,2.09
2023-02-07T12:11:37.704Z,2.22
2023-02-07T12:14:12.101Z,2.00
2023-02-07T12:16:43.202Z,2.24
2023-02-07T12:19:14.030Z,2.42
2023-02-07T12:21:52.441Z,2.13
2023-02-07T12:24:23.306Z,2.40
2023-02-07T12:26:54.803Z,2.17
2023-02-07T12:29:28.062Z,2.33
2023-02-07T12:32:02.739Z,2.47
2023-02-07T12:34:34.613Z,2.45
2023-02-07T12:37:09.996Z,2.29
2023-02-07T12:39:42.017Z,2.46
2023-02-07T12:42:29.446Z,2.42
2023-02-07T12:44:59.448Z,2.64
2023-02-07T12:47:35.904Z,1.94
2023-02-07T12:50:14.808Z,2.18
2023-02-07T12:52:51.802Z,2.32
2023-02-07T12:55:28.001Z,2.43
2023-02-07T12:58:03.525Z,2.51
2023-02-07T13:00:38.296Z,2.86
2023-02-07T13:03:16.543Z,2.82
2023-02-07T13:05:54.288Z,3.07
2023-02-07T13:08:32.186Z,2.95
2023-02-07T13:11:07.770Z,2.71
2023-02-07T13:13:40.660Z,2.84
2023-02-07T13:16:13.141Z,2.79
2023-02-07T13:18:44.571Z,2.66
2023-02-07T13:21:18.956Z,2.74
2023-02-07T13:23:49.718Z,2.99
2023-02-07T13:26:20.347Z,2.83
2023-02-07T13:28:50.561Z,2.58
2023-02-07T13:31:20.431Z,2.78
2023-02-07T13:33:49.192Z,2.76
2023-02-07T13:36:20.834Z,2.99
2023-02-07T13:39:00.386Z,2.68
2023-02-07T13:41:33.932Z,2.47
2023-02-07T13:44:20.344Z,2.70
2023-02-07T13:46:56.764Z,2.90
2023-02-07T13:49:31.211Z,2.84
2023-02-07T13:52:03.234Z,2.71
2023-02-07T13:54:36.893Z,2.92
2023-02-07T13:57:22.120Z,2.85
2023-02-07T14:00:18.863Z,2.74
2023-02-07T14:02:50.844Z,2.89
2023-02-07T14:05:22.728Z,2.82
2023-02-07T14:07:55.897Z,2.58
2023-02-07T14:10:45.667Z,2.49
2023-02-07T14:13:30.591Z,2.58
2023-02-07T14:16:04.993Z,2.58
2023-02-07T14:18:40.854Z,2.66
2023-02-07T14:21:24.965Z,2.85
2023-02-07T14:24:03.180Z,2.78
2023-02-07T14:26:51.118Z,2.91
2023-02-07T14:29:55.478Z,2.99
2023-02-07T14:33:02.659Z,2.94
2023-02-07T14:35:34.714Z,2.83
2023-02-07T14:38:13.564Z,2.99
2023-02-07T14:41:09.690Z,2.85
2023-02-07T14:43:45.851Z,2.75
2023-02-07T14:46:16.905Z,2.84
2023-02-07T14:48:50.927Z,2.84
2023-02-07T14:51:22.477Z,2.96
2023-02-07T14:53:58.272Z,2.80
2023-02-07T14:56:39.249Z,2.56
2023-02-07T14:59:07.380Z,2.68
2023-02-07T15:01:34.992Z,2.66
2023-02-07T15:04:03.746Z,2.60
2023-02-07T15:06:38.256Z,2.66
2023-02-07T15:09:06.548Z,2.68
2023-02-07T15:11:34.142Z,2.50
2023-02-07T15:14:03.138Z,2.55
2023-02-07T15:16:32.593Z,2.55
2023-02-07T15:19:03.692Z,2.47
2023-02-07T15:21:35.893Z,2.54
2023-02-07T15:24:06.462Z,2.54
2023-02-07T15:26:34.869Z,2.54
2023-02-07T15:29:05.044Z,2.37
2023-02-07T15:31:39.267Z,2.46
2023-02-07T15:34:09.178Z,2.37
2023-02-07T15:36:40.418Z,2.32
2023-02-07T15:39:13.881Z,2.39
2023-02-07T15:41:41.608Z,2.29
2023-02-07T15:44:21.013Z,2.21
2023-02-07T15:46:50.331Z,2.18
2023-02-07T15:49:40.647Z,2.28
2023-02-07T15:52:16.357Z,2.22
2023-02-07T15:54:46.327Z,2.18
2023-02-07T15:57:19.842Z,2.12
2023-02-07T15:59:52.008Z,2.24
2023-02-07T16:02:29.782Z,2.09
2023-02-07T16:04:57.492Z,2.04
2023-02-07T16:07:26.523Z,1.85
2023-02-07T16:09:54.467Z,1.80
2023-02-07T16:12:43.857Z,1.81
2023-02-07T16:15:29.334Z,1.83
2023-02-07T16:17:57.345Z,1.67
2023-02-07T16:20:25.803Z,1.40
2023-02-07T16:22:57.471Z,1.31
2023-02-07T16:25:28.597Z,1.45
2023-02-07T16:27:56.651Z,1.21
2023-02-07T16:30:26.785Z,1.28
2023-02-07T16:32:54.470Z,1.36
2023-02-07T16:35:23.485Z,1.22
2023-02-07T16:37:51.589Z,1.13
2023-02-07T16:40:22.454Z,1.24
2023-02-07T16:42:50.909Z,1.03
2023-02-07T16:45:21.148Z,1.21
2023-02-07T16:47:49.073Z,1.11
2023-02-07T16:50:19.593Z,0.75
2023-02-07T16:52:48.039Z,0.83
2023-02-07T16:55:16.167Z,0.82
2023-02-07T16:57:46.269Z,0.89
2023-02-07T17:00:16.515Z,0.87
2023-02-07T17:02:44.235Z,0.84
2023-02-07T17:05:11.822Z,0.87
2023-02-07T17:07:39.434Z,0.70
2023-02-07T17:10:19.839Z,0.67
2023-02-07T17:12:48.875Z,0.65
2023-02-07T17:15:16.771Z,0.63
2023-02-07T17:17:44.373Z,0.59
2023-02-07T17:20:20.375Z,0.65
2023-02-07T17:22:48.793Z,0.68
2023-02-07T17:25:16.795Z,0.60
2023-02-07T17:27:44.490Z,0.55
2023-02-07T17:30:18.488Z,0.63
2023-02-07T17:32:46.436Z,0.61
2023-02-07T17:35:14.461Z,0.47
2023-02-07T17:37:42.206Z,0.51
2023-02-07T17:40:22.000Z,0.48
2023-02-07T17:42:49.819Z,0.42
2023-02-07T17:45:19.328Z,0.35
2023-02-07T17:47:47.040Z,0.29
2023-02-07T17:50:17.845Z,0.18
2023-02-07T17:52:45.621Z,0.16
2023-02-07T17:55:13.326Z,0.14
2023-02-07T17:57:41.526Z,-0.06
2023-02-07T18:00:12.830Z,0.14
2023-02-07T18:02:42.636Z,0.08
2023-02-07T18:05:10.660Z,-0.08
2023-02-07T18:07:38.359Z,-0.09
2023-02-07T18:10:09.587Z,-0.18
2023-02-07T18:12:37.323Z,0.13
2023-02-07T18:15:08.394Z,-0.18
2023-02-07T18:17:36.441Z,0.05
2023-02-07T18:20:06.613Z,-0.17
2023-02-07T18:22:34.350Z,-0.12
2023-02-07T18:25:01.923Z,-0.14
2023-02-07T18:27:29.564Z,-0.17
2023-02-07T18:29:57.193Z,-0.01
2023-02-07T18:32:24.811Z,0.01
2023-02-07T18:34:52.661Z,-0.26
2023-02-07T18:37:22.431Z,-0.21
2023-02-07T18:39:50.201Z,-0.27
2023-02-07T18:42:17.928Z,0.02
2023-02-07T18:44:45.946Z,-0.10
2023-02-07T18:47:13.608Z,0.03
2023-02-07T18:49:41.264Z,-0.20
2023-02-07T18:52:08.882Z,-0.25
2023-02-07T18:54:38.893Z,-0.03
2023-02-07T18:57:06.791Z,-0.25
2023-02-07T18:59:35.036Z,-0.06
2023-02-07T19:02:03.358Z,-0.25
2023-02-07T19:04:31.158Z,-0.28
2023-02-07T19:06:59.688Z,-0.46
2023-02-07T19:09:28.008Z,-0.49
2023-02-07T19:11:58.321Z,-0.38
2023-02-07T19:14:30.665Z,-0.28
2023-02-07T19:16:58.725Z,-0.17
2023-02-07T19:19:29.019Z,-0.32
2023-02-07T19:21:57.394Z,-0.30
2023-02-07T19:24:25.556Z,-0.42
2023-02-07T19:26:55.012Z,-0.46
2023-02-07T19:29:28.614Z,-0.23
2023-02-07T19:31:56.956Z,-0.13
2023-02-07T19:34:24.898Z,-0.31
2023-02-07T19:36:52.536Z,-0.31
2023-02-07T19:39:20.179Z,-0.57
2023-02-07T19:41:47.806Z,-0.66
2023-02-07T19:44:15.446Z,-0.52
2023-02-07T19:46:45.032Z,-0.60
2023-02-07T19:49:13.289Z,-0.56
2023-02-07T19:51:41.091Z,-0.84
2023-02-07T19:54:08.745Z,-0.95
2023-02-07T19:56:37.486Z,-0.87
2023-02-07T19:59:06.895Z,-0.81
2023-02-07T20:01:37.281Z,-1.10
2023-02-07T20:04:06.792Z,-1.14
2023-02-07T20:06:35.721Z,-1.02
2023-02-07T20:09:05.468Z,-0.99
2023-02-07T20:11:33.337Z,-1.01
2023-02-07T20:14:03.105Z,-0.87
2023-02-07T20:16:33.537Z,-1.01
2023-02-07T20:19:01.602Z,-1.04
2023-02-07T20:21:33.539Z,-1.06
2023-02-07T20:24:01.629Z,-1.10
2023-02-07T20:26:31.740Z,-1.26
2023-02-07T20:29:00.823Z,-1.14
2023-02-07T20:31:29.192Z,-1.26
2023-02-07T20:33:57.627Z,-1.21
2023-02-07T20:36:26.060Z,-1.33
2023-02-07T20:38:57.097Z,-1.09
2023-02-07T20:41:39.336Z,-1.25
2023-02-07T20:44:11.406Z,-1.27
2023-02-07T20:46:40.109Z,-1.37
2023-02-07T20:49:09.282Z,-1.26
2023-02-07T20:51:38.029Z,-1.19
2023-02-07T20:54:07.904Z,-1.01
2023-02-07T20:56:36.306Z,-1.11
2023-02-07T20:59:03.946Z,-1.11
2023-02-07T21:01:32.701Z,-1.06
2023-02-07T21:04:01.617Z,-1.23
2023-02-07T21:06:29.896Z,-1.23
2023-02-07T21:09:00.858Z,-1.20
2023-02-07T21:11:33.679Z,-1.24
2023-02-07T21:14:01.884Z,-1.37
2023-02-07T21:16:30.734Z,-1.25
2023-02-07T21:18:58.727Z,-1.26
2023-02-07T21:21:26.931Z,-1.46
2023-02-07T21:23:54.786Z,-1.30
2023-02-07T21:26:22.471Z,-1.28
2023-02-07T21:28:51.670Z,-1.58
2023-02-07T21:31:21.141Z,-1.27
2023-02-07T21:33:51.127Z,-1.18
2023-02-07T21:36:20.352Z,-1.31
2023-02-07T21:38:49.584Z,-1.35
2023-02-07T21:41:28.642Z,-1.33
2023-02-07T21:43:58.542Z,-1.33
2023-02-07T21:46:28.251Z,-1.26
2023-02-07T21:48:59.003Z,-1.25
2023-02-07T21:51:27.282Z,-1.22
2023-02-07T21:53:56.072Z,-1.28
2023-02-07T21:56:25.944Z,-1.24
2023-02-07T21:58:54.734Z,-1.27
2023-02-07T22:01:24.429Z,-1.41
2023-02-07T22:03:53.850Z,-1.48
2023-02-07T22:06:22.138Z,-1.47
2023-02-07T22:08:54.131Z,-1.45
2023-02-07T22:11:23.274Z,-1.48
2023-02-07T22:13:52.388Z,-1.56
2023-02-07T22:16:21.935Z,-1.35
2023-02-07T22:18:52.529Z,-1.46
2023-02-07T22:21:22.241Z,-1.49
2023-02-07T22:23:50.153Z,-1.58
2023-02-07T22:26:18.723Z,-1.66
2023-02-07T22:28:46.418Z,-1.63
2023-02-07T22:31:15.900Z,-1.67
2023-02-07T22:33:44.248Z,-1.79
2023-02-07T22:36:14.976Z,-1.83
2023-02-07T22:38:42.761Z,-1.95
2023-02-07T22:41:10.421Z,-1.91
2023-02-07T22:43:38.385Z,-1.99
2023-02-07T22:46:07.112Z,-1.92
2023-02-07T22:48:36.288Z,-2.17
2023-02-07T22:51:11.969Z,-2.02
2023-02-07T22:53:41.207Z,-1.98
2023-02-07T22:56:09.645Z,-1.91
2023-02-07T22:58:38.152Z,-1.81
2023-02-07T23:01:06.550Z,-1.90
2023-02-07T23:03:34.855Z,-1.82
2023-02-07T23:06:05.541Z,-1.90
2023-02-07T23:08:33.373Z,-2.05
2023-02-07T23:11:02.590Z,-1.94
2023-02-07T23:13:30.517Z,-2.09
2023-02-07T23:15:58.234Z,-2.00
2023-02-07T23:18:25.958Z,-2.11
2023-02-07T23:20:53.611Z,-2.07
2023-02-07T23:23:22.578Z,-1.96
2023-02-07T23:25:50.228Z,-1.89
2023-02-07T23:28:19.246Z,-1.88
2023-02-07T23:30:47.027Z,-1.90
2023-02-07T23:33:14.651Z,-2.00
2023-02-07T23:35:42.398Z,-1.92
2023-02-07T23:38:10.042Z,-1.90
2023-02-07T23:40:37.777Z,-2.04
2023-02-07T23:43:05.523Z,-1.96
2023-02-07T23:45:34.573Z,-2.11
2023-02-07T23:48:03.846Z,-2.11
2023-02-07T23:50:31.530Z,-2.18
2023-02-07T23:52:59.169Z,-1.99
2023-02-07T23:55:26.832Z,-2.19
2023-02-07T23:57:55.122Z,-2.24
